Terminal Aerodrome Forecast
Issued by NWS Jackson, KY

Home | Current Version | Previous Version | Text Only | Print | Product List | Glossary On
Versions: 1 2 3 4 5 6 7 8 9 10 11 12 13 14 15 16 17 18 19 20 21 22
208
FTUS43 KJKL 271120
TAFLOZ
TAF
KLOZ 271120Z 2712/2812 00000KT P6SM BKN250
     FM271600 21007KT P6SM VCTS BKN050CB
     FM280000 18004KT P6SM -SHRA VCTS OVC050CB
     FM280600 20006KT P6SM -SHRA OVC040
     FM281000 21005KT P6SM -SHRA BKN030=

USA.gov is the U.S. government's official web portal to all federal, state and local government web resources and services.